Terminal Aerodrome Forecast
Issued by NWS

Home | Current Version | Previous Version | Text Only | Print | Product List | Glossary On
Versions: 1 2 3 4 5 6 7 8 9 10 11 12 13 14 15 16 17 18 19 20
000
FTUS45 KABQ 022300
TAFGUP
TAF
KGUP 022328Z 0300/0324 21025G35KT P6SM SCT045 BKN070
      TEMPO 0300/0301 -SHRA BKN025
     FM030100 23023G32KT 5SM -RASN BKN025 OVC040
      TEMPO 0302/0306 2SM -SN BR OVC008
     FM030600 24012KT P6SM VCSH BKN025
     FM031500 23010KT P6SM VCSH SCT025 SCT070=

USA.gov is the U.S. government's official web portal to all federal, state and local government web resources and services.